Whippleville, New York
Current Conditions -  °F | °C
As of 6:51 AM on Friday 24 Oct 2014 (Local Time) from KSLK Reporting Station
Light Rain Light Rain  
Wind Chill: 39°   Ceiling: 1000
Heat Index: 39°   Visibility: 8mi
Dew Point: 38°   Wind: 3mph
Humidity: 96%   Direction: 350°N
Pressure: 29.86"   Gusts: NA
Location:  44.81°N, 74.26°W
Report Text: KSLK 241051Z AUTO 35003KT 8SM -RA OVC010 04/03 A2986 RMK AO2 CIG 008V013 SLP124 P0005 T00390033
Loading
Personal Weather Stations






























Interactive Weather Map
Tropical Storm Tracking
New forecast layout! Learn more

10-Day Weather Forecast

Advertisements
Track Severe Weather on mobile